createdAt,value
2018-02-02T00:00:01.376Z,0
2018-02-02T00:00:41.947Z,0
2018-02-02T00:01:22.482Z,0
2018-02-02T00:02:03.002Z,0
2018-02-02T00:02:43.569Z,0
2018-02-02T00:03:24.130Z,0
2018-02-02T00:04:04.675Z,0
2018-02-02T00:04:45.168Z,0
2018-02-02T00:05:25.739Z,0
2018-02-02T00:06:06.280Z,0
2018-02-02T00:06:46.803Z,0
2018-02-02T00:07:27.317Z,0
2018-02-02T00:08:07.866Z,0
2018-02-02T00:08:48.454Z,0
2018-02-02T00:09:28.936Z,0
2018-02-02T00:10:09.512Z,0
2018-02-02T00:10:50.210Z,0
2018-02-02T00:11:30.751Z,0
2018-02-02T00:12:11.288Z,0
2018-02-02T00:12:51.865Z,0
2018-02-02T00:13:32.389Z,0
2018-02-02T00:14:12.940Z,0
2018-02-02T00:14:53.501Z,0
2018-02-02T00:15:34.057Z,0
2018-02-02T00:16:14.566Z,0
2018-02-02T00:16:55.121Z,0
2018-02-02T00:17:35.685Z,0
2018-02-02T00:18:16.231Z,0
2018-02-02T00:18:56.724Z,0
2018-02-02T00:19:37.265Z,0
2018-02-02T00:20:17.820Z,0
2018-02-02T00:20:58.327Z,0
2018-02-02T00:21:38.934Z,0
2018-02-02T00:22:19.477Z,0
2018-02-02T00:22:59.960Z,0
2018-02-02T00:23:40.517Z,0
2018-02-02T00:24:21.035Z,0
2018-02-02T00:25:01.747Z,0
2018-02-02T00:25:42.177Z,0
2018-02-02T00:26:22.710Z,0
2018-02-02T00:27:03.229Z,0
2018-02-02T00:27:43.894Z,0
2018-02-02T00:28:24.387Z,0
2018-02-02T00:29:04.889Z,0
2018-02-02T00:29:45.553Z,0
2018-02-02T00:30:26.164Z,0
2018-02-02T00:31:06.671Z,0
2018-02-02T00:31:47.279Z,0
2018-02-02T00:32:27.869Z,0
2018-02-02T00:33:08.609Z,0
2018-02-02T00:33:49.699Z,0
2018-02-02T00:34:30.167Z,0
2018-02-02T00:35:10.910Z,0
2018-02-02T00:35:52.129Z,0
2018-02-02T00:36:32.731Z,0
2018-02-02T00:37:13.289Z,0
2018-02-02T00:37:53.888Z,0
2018-02-02T00:38:34.435Z,0
2018-02-02T00:39:15.073Z,0
2018-02-02T00:39:55.891Z,0
2018-02-02T00:40:36.131Z,0
2018-02-02T00:41:16.715Z,0
2018-02-02T00:41:57.252Z,0
2018-02-02T00:42:37.789Z,0
2018-02-02T00:43:18.487Z,0
2018-02-02T00:43:58.903Z,0
2018-02-02T00:44:39.379Z,0
2018-02-02T00:45:19.912Z,0
2018-02-02T00:46:00.423Z,0
2018-02-02T00:46:40.959Z,0
2018-02-02T00:47:21.516Z,0
2018-02-02T00:48:02.125Z,0
2018-02-02T00:48:42.647Z,0
2018-02-02T00:49:23.229Z,0
2018-02-02T00:50:03.682Z,0
2018-02-02T00:50:44.182Z,0
2018-02-02T00:51:24.803Z,0
2018-02-02T00:52:05.340Z,0
2018-02-02T00:52:45.818Z,0
2018-02-02T00:53:26.375Z,0
2018-02-02T00:54:06.845Z,0
2018-02-02T00:54:47.380Z,0
2018-02-02T00:55:27.946Z,0
2018-02-02T00:56:08.436Z,0
2018-02-02T00:56:49.037Z,0
2018-02-02T00:57:29.525Z,0
2018-02-02T00:58:10.062Z,0
2018-02-02T00:58:50.625Z,0
2018-02-02T00:59:31.129Z,0
2018-02-02T01:00:11.686Z,0
2018-02-02T01:00:52.218Z,0
2018-02-02T01:01:32.749Z,0
2018-02-02T01:02:13.269Z,0
2018-02-02T01:02:53.803Z,0
2018-02-02T01:03:34.335Z,0
2018-02-02T01:04:14.853Z,0
2018-02-02T01:04:55.362Z,0
2018-02-02T01:05:35.885Z,0
2018-02-02T01:06:16.420Z,0
2018-02-02T01:06:56.944Z,0
2018-02-02T01:07:37.453Z,0
2018-02-02T01:08:18.035Z,0
2018-02-02T01:08:58.502Z,0
2018-02-02T01:09:39.035Z,0
2018-02-02T01:10:19.567Z,0
2018-02-02T01:11:00.127Z,0
2018-02-02T01:11:40.681Z,0
2018-02-02T01:12:21.203Z,0
2018-02-02T01:13:01.706Z,0
2018-02-02T01:13:42.312Z,0
2018-02-02T01:14:22.856Z,0
2018-02-02T01:15:03.422Z,0
2018-02-02T01:15:43.938Z,0
2018-02-02T01:16:24.407Z,0
2018-02-02T01:17:04.965Z,0
2018-02-02T01:17:45.519Z,0
2018-02-02T01:18:26.094Z,0
2018-02-02T01:19:06.633Z,0
2018-02-02T01:19:47.149Z,0
2018-02-02T01:20:27.685Z,0
2018-02-02T01:21:08.212Z,0
2018-02-02T01:21:48.769Z,0
2018-02-02T01:22:29.307Z,0
2018-02-02T01:23:09.850Z,0
2018-02-02T01:23:50.386Z,0
2018-02-02T01:24:30.916Z,0
2018-02-02T01:25:11.431Z,0
2018-02-02T01:25:51.970Z,0
2018-02-02T01:26:32.517Z,0
2018-02-02T01:27:13.022Z,0
2018-02-02T01:27:53.530Z,0
2018-02-02T01:28:34.091Z,0
2018-02-02T01:29:14.630Z,0
2018-02-02T01:29:55.154Z,0
2018-02-02T01:30:35.684Z,0
2018-02-02T01:31:16.215Z,0
2018-02-02T01:31:56.763Z,0
2018-02-02T01:32:37.344Z,0
2018-02-02T01:33:17.884Z,0
2018-02-02T01:33:58.421Z,0
2018-02-02T01:34:38.972Z,0
2018-02-02T01:35:19.478Z,0
2018-02-02T01:35:59.997Z,0
2018-02-02T01:36:40.491Z,0
2018-02-02T01:37:21.019Z,0
2018-02-02T01:38:01.584Z,0
2018-02-02T01:38:42.152Z,0
2018-02-02T01:39:22.662Z,0
2018-02-02T01:40:03.236Z,0
2018-02-02T01:40:43.758Z,0
2018-02-02T01:41:24.290Z,0
2018-02-02T01:42:04.828Z,0
2018-02-02T01:42:45.402Z,0
2018-02-02T01:43:25.958Z,0
2018-02-02T01:44:06.529Z,0
2018-02-02T01:44:47.020Z,0
2018-02-02T01:45:27.553Z,0
2018-02-02T01:46:08.162Z,0
2018-02-02T01:46:48.680Z,0
2018-02-02T01:47:29.241Z,0
2018-02-02T01:48:09.830Z,0
2018-02-02T01:48:50.341Z,0
2018-02-02T01:49:30.818Z,0
2018-02-02T01:50:11.361Z,0
2018-02-02T01:50:51.931Z,0
2018-02-02T01:51:32.453Z,0
2018-02-02T01:52:12.992Z,0
2018-02-02T01:52:53.542Z,0
2018-02-02T01:53:34.051Z,0
2018-02-02T01:54:14.597Z,0
2018-02-02T01:54:55.114Z,0
2018-02-02T01:55:35.630Z,0
2018-02-02T01:56:16.155Z,0
2018-02-02T01:56:56.686Z,0
2018-02-02T01:57:37.197Z,0
2018-02-02T01:58:17.726Z,0
2018-02-02T01:58:58.203Z,0
2018-02-02T01:59:38.748Z,0
2018-02-02T02:00:19.301Z,0
2018-02-02T02:00:59.839Z,0
2018-02-02T02:01:40.365Z,0
2018-02-02T02:02:20.925Z,0
2018-02-02T02:03:01.487Z,0
2018-02-02T02:03:41.961Z,0
2018-02-02T02:04:22.484Z,0
2018-02-02T02:05:03.040Z,0
2018-02-02T02:05:43.616Z,0
2018-02-02T02:06:25.767Z,0
2018-02-02T02:07:06.247Z,0
2018-02-02T02:07:46.868Z,0
2018-02-02T02:08:27.467Z,0
2018-02-02T02:09:07.951Z,0
2018-02-02T02:09:48.509Z,0
2018-02-02T02:10:29.040Z,0
2018-02-02T02:11:09.619Z,0
2018-02-02T02:11:50.191Z,0
2018-02-02T02:12:30.695Z,0
2018-02-02T02:13:11.217Z,0
2018-02-02T02:13:51.740Z,0
2018-02-02T02:14:32.273Z,0
2018-02-02T02:15:12.835Z,0
2018-02-02T02:15:53.455Z,0
2018-02-02T02:16:33.984Z,0
2018-02-02T02:17:14.524Z,0
2018-02-02T02:17:55.067Z,0
2018-02-02T02:18:35.603Z,0
2018-02-02T02:19:16.168Z,0
2018-02-02T02:19:56.780Z,0
2018-02-02T02:20:37.312Z,0
2018-02-02T02:21:17.851Z,0
2018-02-02T02:21:58.403Z,0
2018-02-02T02:22:38.890Z,0
2018-02-02T02:23:19.473Z,0
2018-02-02T02:23:59.993Z,0
2018-02-02T02:24:40.586Z,0
2018-02-02T02:25:21.093Z,0
2018-02-02T02:26:01.657Z,0
2018-02-02T02:26:42.187Z,0
2018-02-02T02:27:22.709Z,0
2018-02-02T02:28:03.231Z,0
2018-02-02T02:28:43.791Z,0
2018-02-02T02:29:24.403Z,0
2018-02-02T02:30:04.874Z,0
2018-02-02T02:30:45.412Z,0
2018-02-02T02:31:25.952Z,0
2018-02-02T02:32:06.508Z,0
2018-02-02T02:32:47.064Z,0
2018-02-02T02:33:27.759Z,0
2018-02-02T02:34:08.187Z,0
2018-02-02T02:34:48.749Z,0
2018-02-02T02:35:29.289Z,0
2018-02-02T02:36:09.829Z,0
2018-02-02T02:36:50.398Z,0
2018-02-02T02:37:30.938Z,0
2018-02-02T02:38:11.473Z,0
2018-02-02T02:38:52.068Z,0
2018-02-02T02:39:32.582Z,0
2018-02-02T02:40:13.189Z,0
2018-02-02T02:40:53.652Z,0
2018-02-02T02:41:34.172Z,0
2018-02-02T02:42:14.771Z,0
2018-02-02T02:42:55.276Z,0
2018-02-02T02:43:35.808Z,0
2018-02-02T02:44:16.350Z,0
2018-02-02T02:44:56.900Z,0
2018-02-02T02:45:37.424Z,0
2018-02-02T02:46:17.964Z,0
2018-02-02T02:46:58.573Z,0
2018-02-02T02:47:39.050Z,0
2018-02-02T02:48:19.619Z,0
2018-02-02T02:49:00.180Z,0
2018-02-02T02:49:40.717Z,0
2018-02-02T02:50:21.283Z,0
2018-02-02T02:51:01.899Z,0
2018-02-02T02:51:42.473Z,0
2018-02-02T02:52:23.038Z,0
2018-02-02T02:53:03.542Z,0
2018-02-02T02:53:44.101Z,0
2018-02-02T02:54:24.608Z,0
2018-02-02T02:55:05.160Z,0
2018-02-02T02:55:45.679Z,0
2018-02-02T02:56:26.224Z,0
2018-02-02T02:57:06.761Z,0
2018-02-02T02:57:47.325Z,0
2018-02-02T02:58:27.864Z,0
2018-02-02T02:59:08.424Z,0
2018-02-02T02:59:48.951Z,0
2018-02-02T03:00:29.553Z,0
2018-02-02T03:01:10.131Z,0
2018-02-02T03:01:50.637Z,0
2018-02-02T03:02:31.177Z,0
2018-02-02T03:03:11.712Z,0
2018-02-02T03:03:52.240Z,0
2018-02-02T03:04:32.762Z,0
2018-02-02T03:05:13.327Z,0
2018-02-02T03:05:53.874Z,0
2018-02-02T03:06:34.423Z,0
2018-02-02T03:07:15.027Z,0
2018-02-02T03:07:55.584Z,0
2018-02-02T03:08:36.050Z,0
2018-02-02T03:09:16.593Z,0
2018-02-02T03:09:57.127Z,0
2018-02-02T03:10:37.689Z,0
2018-02-02T03:11:18.208Z,0
2018-02-02T03:11:58.739Z,0
2018-02-02T03:12:39.256Z,0
2018-02-02T03:13:19.860Z,0
2018-02-02T03:14:00.336Z,0
2018-02-02T03:14:40.919Z,0
2018-02-02T03:15:21.501Z,0
2018-02-02T03:16:01.949Z,0
2018-02-02T03:16:42.480Z,0
2018-02-02T03:17:22.992Z,0
2018-02-02T03:18:03.585Z,0
2018-02-02T03:18:44.099Z,0
2018-02-02T03:19:24.630Z,0
2018-02-02T03:20:05.169Z,0
2018-02-02T03:20:45.786Z,0
2018-02-02T03:21:26.322Z,0
2018-02-02T03:22:06.855Z,0
2018-02-02T03:22:47.382Z,0
2018-02-02T03:23:27.922Z,0
2018-02-02T03:24:08.505Z,0
2018-02-02T03:24:49.078Z,0
2018-02-02T03:25:29.635Z,0
2018-02-02T03:26:10.188Z,0
2018-02-02T03:26:50.727Z,0
2018-02-02T03:27:31.247Z,0
2018-02-02T03:28:11.743Z,0
2018-02-02T03:28:52.292Z,0
2018-02-02T03:29:32.837Z,0
2018-02-02T03:30:13.424Z,0
2018-02-02T03:30:53.942Z,0
2018-02-02T03:31:34.544Z,0
2018-02-02T03:32:15.056Z,0
2018-02-02T03:32:55.622Z,0
2018-02-02T03:33:36.155Z,0
2018-02-02T03:34:16.678Z,0
2018-02-02T03:34:57.232Z,0
2018-02-02T03:35:37.777Z,0
2018-02-02T03:36:18.382Z,0
2018-02-02T03:36:58.914Z,0
2018-02-02T03:37:39.463Z,0
2018-02-02T03:38:20.012Z,0
2018-02-02T03:39:00.538Z,0
2018-02-02T03:39:41.102Z,0
2018-02-02T03:40:21.655Z,0
2018-02-02T03:41:02.219Z,0
2018-02-02T03:41:42.699Z,0
2018-02-02T03:42:23.238Z,0
2018-02-02T03:43:03.765Z,0
2018-02-02T03:43:44.285Z,0
2018-02-02T03:44:24.849Z,0
2018-02-02T03:45:05.397Z,0
2018-02-02T03:45:45.960Z,0
2018-02-02T03:46:26.491Z,0
2018-02-02T03:47:07.010Z,0
2018-02-02T03:47:47.549Z,0
2018-02-02T03:48:28.151Z,0
2018-02-02T03:49:08.649Z,0
2018-02-02T03:49:49.181Z,0
2018-02-02T03:50:29.767Z,0
2018-02-02T03:51:10.299Z,0
2018-02-02T03:51:50.808Z,0
2018-02-02T03:52:31.348Z,0
2018-02-02T03:53:11.860Z,0
2018-02-02T03:53:52.441Z,0
2018-02-02T03:54:32.988Z,0
2018-02-02T03:55:13.554Z,0
2018-02-02T03:55:54.106Z,0
2018-02-02T03:56:34.646Z,0
2018-02-02T03:57:15.312Z,0
2018-02-02T03:57:57.491Z,0
2018-02-02T03:58:37.999Z,0
2018-02-02T03:59:18.572Z,0
2018-02-02T03:59:59.099Z,0
2018-02-02T04:00:39.674Z,0
2018-02-02T04:01:20.273Z,0
2018-02-02T04:02:00.770Z,0
2018-02-02T04:02:41.354Z,0
2018-02-02T04:03:21.865Z,0
2018-02-02T04:04:02.446Z,0
2018-02-02T04:04:42.959Z,0
2018-02-02T04:05:23.505Z,0
2018-02-02T04:06:04.049Z,0
2018-02-02T04:06:44.566Z,0
2018-02-02T04:07:25.100Z,0
2018-02-02T04:08:05.818Z,0
2018-02-02T04:08:46.203Z,0
2018-02-02T04:09:26.734Z,0
2018-02-02T04:10:07.267Z,0
2018-02-02T04:10:47.830Z,0
2018-02-02T04:11:28.344Z,0
2018-02-02T04:12:08.886Z,0
2018-02-02T04:12:49.395Z,0
2018-02-02T04:13:29.887Z,0
2018-02-02T04:14:10.473Z,0
2018-02-02T04:14:50.959Z,0
2018-02-02T04:15:31.564Z,0
2018-02-02T04:16:12.071Z,0
2018-02-02T04:16:52.599Z,0
2018-02-02T04:17:33.166Z,0
2018-02-02T04:18:13.686Z,0
2018-02-02T04:18:54.208Z,0
2018-02-02T04:19:34.752Z,0
2018-02-02T04:20:15.305Z,0
2018-02-02T04:20:55.810Z,0
2018-02-02T04:21:36.402Z,0
2018-02-02T04:22:16.917Z,0
2018-02-02T04:22:57.469Z,0
2018-02-02T04:23:37.980Z,0
2018-02-02T04:24:18.573Z,0
2018-02-02T04:24:59.142Z,0
2018-02-02T04:25:39.644Z,0
2018-02-02T04:26:20.154Z,0
2018-02-02T04:27:00.699Z,0
2018-02-02T04:27:41.275Z,0
2018-02-02T04:28:21.827Z,0
2018-02-02T04:29:02.368Z,0
2018-02-02T04:29:42.885Z,0
2018-02-02T04:30:23.429Z,0
2018-02-02T04:31:03.968Z,0
2018-02-02T04:31:44.452Z,0
2018-02-02T04:32:25.003Z,0
2018-02-02T04:33:05.550Z,0
2018-02-02T04:33:46.101Z,0
2018-02-02T04:34:26.631Z,0
2018-02-02T04:35:07.181Z,0
2018-02-02T04:35:47.708Z,0
2018-02-02T04:36:28.269Z,0
2018-02-02T04:37:08.804Z,0
2018-02-02T04:37:49.331Z,0
2018-02-02T04:38:29.880Z,0
2018-02-02T04:39:10.397Z,0
2018-02-02T04:39:51.487Z,0
2018-02-02T04:40:31.960Z,0
2018-02-02T04:41:12.524Z,0
2018-02-02T04:41:53.125Z,0
2018-02-02T04:42:33.610Z,0
2018-02-02T04:43:14.267Z,0
2018-02-02T04:43:54.633Z,0
2018-02-02T04:44:35.322Z,0
2018-02-02T04:45:15.917Z,0
2018-02-02T04:45:56.431Z,0
2018-02-02T04:46:36.990Z,0
2018-02-02T04:47:17.528Z,0
2018-02-02T04:47:58.112Z,0
2018-02-02T04:48:38.706Z,0
2018-02-02T04:49:19.381Z,0
2018-02-02T04:49:59.921Z,0
2018-02-02T04:50:40.593Z,0
2018-02-02T04:51:21.093Z,0
2018-02-02T04:52:01.653Z,0
2018-02-02T04:52:42.146Z,0
2018-02-02T04:53:22.677Z,0
2018-02-02T04:54:03.256Z,0
2018-02-02T04:54:44.077Z,0
2018-02-02T04:55:24.632Z,0
2018-02-02T04:56:05.185Z,0
2018-02-02T04:56:45.710Z,0
2018-02-02T04:57:26.250Z,0
2018-02-02T04:58:07.033Z,0
2018-02-02T04:58:47.286Z,0
2018-02-02T04:59:27.925Z,0
2018-02-02T05:00:08.441Z,0
2018-02-02T05:00:48.970Z,0
2018-02-02T05:01:29.511Z,0
2018-02-02T05:02:10.080Z,0
2018-02-02T05:02:50.572Z,0
2018-02-02T05:03:31.127Z,0
2018-02-02T05:04:11.670Z,0
2018-02-02T05:04:52.173Z,0
2018-02-02T05:05:32.717Z,0
2018-02-02T05:06:13.278Z,0
2018-02-02T05:06:53.784Z,0
2018-02-02T05:07:34.275Z,0
2018-02-02T05:08:14.929Z,0
2018-02-02T05:08:55.418Z,0
2018-02-02T05:09:35.949Z,0
2018-02-02T05:10:16.563Z,0
2018-02-02T05:10:57.044Z,0
2018-02-02T05:11:37.600Z,0
2018-02-02T05:12:18.130Z,0
2018-02-02T05:12:58.719Z,0
2018-02-02T05:13:39.205Z,0
2018-02-02T05:14:19.748Z,0
2018-02-02T05:15:00.316Z,0
2018-02-02T05:15:40.778Z,0
2018-02-02T05:16:21.353Z,0
2018-02-02T05:17:01.906Z,0
2018-02-02T05:17:42.435Z,0
2018-02-02T05:18:22.934Z,0
2018-02-02T05:19:03.447Z,0
2018-02-02T05:19:44.046Z,0
2018-02-02T05:20:24.629Z,0
2018-02-02T05:21:05.165Z,0
2018-02-02T05:21:45.766Z,0
2018-02-02T05:22:26.349Z,0
2018-02-02T05:23:06.842Z,0
2018-02-02T05:23:47.401Z,0
2018-02-02T05:24:27.917Z,0
2018-02-02T05:25:08.441Z,0
2018-02-02T05:25:49.003Z,0
2018-02-02T05:26:29.500Z,0
2018-02-02T05:27:10.114Z,0
2018-02-02T05:27:50.652Z,0
2018-02-02T05:28:31.183Z,0
2018-02-02T05:29:11.660Z,0
2018-02-02T05:29:52.202Z,0
2018-02-02T05:30:32.753Z,0
2018-02-02T05:31:13.288Z,0
2018-02-02T05:31:53.858Z,0
2018-02-02T05:32:34.363Z,0
2018-02-02T05:33:14.969Z,0
2018-02-02T05:33:55.595Z,0
2018-02-02T05:34:36.029Z,0
2018-02-02T05:35:16.595Z,0
2018-02-02T05:35:57.153Z,0
2018-02-02T05:36:37.689Z,0
2018-02-02T05:37:18.212Z,0
2018-02-02T05:37:58.785Z,0
2018-02-02T05:38:39.305Z,0
2018-02-02T05:39:19.934Z,0
2018-02-02T05:40:00.553Z,0
2018-02-02T05:40:41.078Z,0
2018-02-02T05:41:21.600Z,0
2018-02-02T05:42:02.127Z,0
2018-02-02T05:42:42.605Z,0
2018-02-02T05:43:23.185Z,0
2018-02-02T05:44:03.742Z,0
2018-02-02T05:44:44.267Z,0
2018-02-02T05:45:24.799Z,0
2018-02-02T05:46:05.489Z,0
2018-02-02T05:46:45.845Z,0
2018-02-02T05:47:26.412Z,0
2018-02-02T05:48:06.878Z,0
2018-02-02T05:48:47.437Z,0
2018-02-02T05:49:27.951Z,0
2018-02-02T05:50:08.474Z,0
2018-02-02T05:50:49.033Z,0
2018-02-02T05:51:29.555Z,0
2018-02-02T05:52:10.128Z,0
2018-02-02T05:52:50.697Z,0
2018-02-02T05:53:31.241Z,0
2018-02-02T05:54:11.738Z,0
2018-02-02T05:54:52.304Z,0
2018-02-02T05:55:32.848Z,0
2018-02-02T05:56:13.352Z,0
2018-02-02T05:56:53.979Z,0
2018-02-02T05:57:34.481Z,0
2018-02-02T05:58:15.049Z,0
2018-02-02T05:58:55.525Z,0
2018-02-02T05:59:36.218Z,0
2018-02-02T06:00:16.749Z,0
2018-02-02T06:00:57.422Z,0
2018-02-02T06:01:37.854Z,0
2018-02-02T06:02:18.395Z,0
2018-02-02T06:02:58.933Z,0
2018-02-02T06:03:39.471Z,0
2018-02-02T06:04:19.998Z,0
2018-02-02T06:05:00.579Z,0
2018-02-02T06:05:41.431Z,0
2018-02-02T06:06:21.990Z,0
2018-02-02T06:07:02.616Z,0
2018-02-02T06:07:45.877Z,0
2018-02-02T06:08:26.403Z,0
2018-02-02T06:09:07.604Z,0
2018-02-02T06:09:48.214Z,0
2018-02-02T06:10:28.738Z,0
2018-02-02T06:11:09.294Z,0
2018-02-02T06:11:49.825Z,0
2018-02-02T06:12:30.329Z,0
2018-02-02T06:13:11.015Z,0
2018-02-02T06:13:51.745Z,0
2018-02-02T06:14:32.305Z,0
2018-02-02T06:15:12.978Z,0
2018-02-02T06:15:53.484Z,0
2018-02-02T06:16:34.044Z,0
2018-02-02T06:17:14.532Z,0
2018-02-02T06:17:55.137Z,0
2018-02-02T06:18:35.652Z,0
2018-02-02T06:19:16.195Z,0
2018-02-02T06:19:56.788Z,0
2018-02-02T06:20:37.296Z,0
2018-02-02T06:21:17.836Z,0
2018-02-02T06:21:58.398Z,0
2018-02-02T06:22:38.917Z,0
2018-02-02T06:23:19.538Z,0
2018-02-02T06:24:00.085Z,0
2018-02-02T06:24:40.643Z,0
2018-02-02T06:25:21.366Z,0
2018-02-02T06:26:02.103Z,0
2018-02-02T06:26:42.899Z,0
2018-02-02T06:27:23.501Z,0
2018-02-02T06:28:04.087Z,0
2018-02-02T06:28:44.587Z,0
2018-02-02T06:29:25.143Z,0
2018-02-02T06:30:05.721Z,0
2018-02-02T06:30:46.637Z,0
2018-02-02T06:31:29.325Z,0
2018-02-02T06:32:09.921Z,0
2018-02-02T06:32:50.385Z,0
2018-02-02T06:33:30.920Z,0
2018-02-02T06:34:11.467Z,0
2018-02-02T06:34:51.943Z,0
2018-02-02T06:35:32.529Z,0
2018-02-02T06:36:13.009Z,0
2018-02-02T06:36:53.575Z,0
2018-02-02T06:37:34.106Z,0
2018-02-02T06:38:14.671Z,0
2018-02-02T06:38:55.196Z,0
2018-02-02T06:39:35.751Z,0
2018-02-02T06:40:16.271Z,0
2018-02-02T06:40:56.806Z,0
2018-02-02T06:41:37.324Z,0
2018-02-02T06:42:17.909Z,0
2018-02-02T06:42:58.452Z,0
2018-02-02T06:43:38.970Z,0
2018-02-02T06:44:19.481Z,0
2018-02-02T06:45:00.064Z,0
2018-02-02T06:45:40.592Z,0
2018-02-02T06:46:21.137Z,0
2018-02-02T06:47:01.628Z,0
2018-02-02T06:47:42.187Z,0
2018-02-02T06:48:22.892Z,0
2018-02-02T06:49:03.319Z,0
2018-02-02T06:49:43.880Z,0
2018-02-02T06:50:24.494Z,0
2018-02-02T06:51:05.081Z,0
2018-02-02T06:51:45.472Z,0
2018-02-02T06:52:26.052Z,0
2018-02-02T06:53:06.633Z,0
2018-02-02T06:53:47.314Z,0
2018-02-02T06:54:27.690Z,0
2018-02-02T06:55:08.263Z,0
2018-02-02T06:55:48.741Z,0
2018-02-02T06:56:29.261Z,0
2018-02-02T06:57:09.833Z,0
2018-02-02T06:57:50.893Z,0
2018-02-02T06:58:31.222Z,0
2018-02-02T06:59:11.802Z,0
2018-02-02T06:59:52.285Z,0
2018-02-02T07:00:32.889Z,0
2018-02-02T07:01:13.375Z,0
2018-02-02T07:01:53.908Z,0
2018-02-02T07:02:34.440Z,0
2018-02-02T07:03:15.000Z,0
2018-02-02T07:03:55.557Z,0
2018-02-02T07:04:36.125Z,0
2018-02-02T07:05:16.643Z,0
2018-02-02T07:05:57.222Z,0
2018-02-02T07:06:37.758Z,0
2018-02-02T07:07:18.699Z,0
2018-02-02T07:07:59.323Z,5
2018-02-02T07:08:39.871Z,5
2018-02-02T07:09:20.393Z,5
2018-02-02T07:10:00.955Z,5
2018-02-02T07:10:41.506Z,5
2018-02-02T07:11:22.095Z,5
2018-02-02T07:12:02.621Z,5
2018-02-02T07:12:43.126Z,10
2018-02-02T07:13:23.704Z,10
2018-02-02T07:14:04.309Z,10
2018-02-02T07:14:44.846Z,10
2018-02-02T07:15:25.391Z,10
2018-02-02T07:16:05.947Z,10
2018-02-02T07:16:46.501Z,10
2018-02-02T07:17:27.069Z,10
2018-02-02T07:18:07.613Z,15
2018-02-02T07:18:48.212Z,15
2018-02-02T07:19:28.818Z,15
2018-02-02T07:20:09.351Z,15
2018-02-02T07:20:49.924Z,15
2018-02-02T07:21:30.488Z,20
2018-02-02T07:22:11.019Z,20
2018-02-02T07:22:51.507Z,20
2018-02-02T07:23:32.249Z,20
2018-02-02T07:24:12.804Z,20
2018-02-02T07:24:53.405Z,20
2018-02-02T07:25:33.976Z,25
2018-02-02T07:26:14.497Z,25
2018-02-02T07:26:55.036Z,25
2018-02-02T07:27:35.577Z,25
2018-02-02T07:28:16.122Z,25
2018-02-02T07:28:56.693Z,25
2018-02-02T07:29:37.157Z,25
2018-02-02T07:30:17.752Z,25
2018-02-02T07:30:58.257Z,25
2018-02-02T07:31:38.837Z,30
2018-02-02T07:32:19.326Z,30
2018-02-02T07:32:59.864Z,30
2018-02-02T07:33:40.413Z,30
2018-02-02T07:34:20.894Z,30
2018-02-02T07:35:01.436Z,30
2018-02-02T07:35:42.021Z,30
2018-02-02T07:36:22.673Z,30
2018-02-02T07:37:03.181Z,30
2018-02-02T07:37:43.648Z,25
2018-02-02T07:38:24.272Z,25
2018-02-02T07:39:04.798Z,30
2018-02-02T07:39:45.434Z,30
2018-02-02T07:40:25.953Z,35
2018-02-02T07:41:06.563Z,40
2018-02-02T07:41:47.112Z,40
2018-02-02T07:42:27.644Z,40
2018-02-02T07:43:08.234Z,45
2018-02-02T07:43:48.816Z,45
2018-02-02T07:44:29.356Z,45
2018-02-02T07:45:09.918Z,45
2018-02-02T07:45:50.424Z,45
2018-02-02T07:46:30.975Z,45
2018-02-02T07:47:11.547Z,45
2018-02-02T07:47:52.203Z,40
2018-02-02T07:48:32.725Z,40
2018-02-02T07:49:13.234Z,40
2018-02-02T07:49:53.824Z,45
2018-02-02T07:50:34.349Z,45
2018-02-02T07:51:14.870Z,45
2018-02-02T07:51:55.411Z,45
2018-02-02T07:52:35.986Z,45
2018-02-02T07:53:16.527Z,45
2018-02-02T07:53:57.049Z,45
2018-02-02T07:54:37.612Z,45
2018-02-02T07:55:18.120Z,40
2018-02-02T07:55:58.633Z,40
2018-02-02T07:56:39.182Z,40
2018-02-02T07:57:19.707Z,35
2018-02-02T07:58:00.289Z,35
2018-02-02T07:58:40.792Z,35
2018-02-02T07:59:21.351Z,35
2018-02-02T08:00:01.876Z,35
2018-02-02T08:00:42.380Z,35
2018-02-02T08:01:22.899Z,35
2018-02-02T08:02:03.557Z,35
2018-02-02T08:02:44.019Z,35
2018-02-02T08:03:24.595Z,40
2018-02-02T08:04:05.108Z,40
2018-02-02T08:04:45.633Z,35
2018-02-02T08:05:26.159Z,35
2018-02-02T08:06:06.692Z,35
2018-02-02T08:06:47.178Z,35
2018-02-02T08:07:27.736Z,35
2018-02-02T08:08:08.488Z,30
2018-02-02T08:08:49.063Z,30
2018-02-02T08:09:29.619Z,30
2018-02-02T08:10:10.177Z,30
2018-02-02T08:10:50.774Z,30
2018-02-02T08:11:31.294Z,30
2018-02-02T08:12:11.880Z,30
2018-02-02T08:12:52.410Z,30
2018-02-02T08:13:32.954Z,30
2018-02-02T08:14:13.532Z,30
2018-02-02T08:14:54.056Z,30
2018-02-02T08:15:34.634Z,30
2018-02-02T08:16:15.193Z,30
2018-02-02T08:16:55.724Z,30
2018-02-02T08:17:36.288Z,30
2018-02-02T08:18:16.801Z,30
2018-02-02T08:18:57.324Z,30
2018-02-02T08:19:37.848Z,30
2018-02-02T08:20:18.364Z,30
2018-02-02T08:20:58.880Z,30
2018-02-02T08:21:39.441Z,30
2018-02-02T08:22:19.981Z,35
2018-02-02T08:23:00.522Z,30
2018-02-02T08:23:41.052Z,30
2018-02-02T08:24:21.729Z,30
2018-02-02T08:25:02.273Z,30
2018-02-02T08:25:42.839Z,30
2018-02-02T08:26:23.429Z,30
2018-02-02T08:27:04.066Z,30
2018-02-02T08:27:44.681Z,30
2018-02-02T08:28:25.257Z,35
2018-02-02T08:29:05.738Z,35
2018-02-02T08:29:46.286Z,30
2018-02-02T08:30:26.780Z,30
2018-02-02T08:31:07.324Z,30
2018-02-02T08:31:47.906Z,30
2018-02-02T08:32:28.537Z,30
2018-02-02T08:33:09.053Z,30
2018-02-02T08:33:49.627Z,30
2018-02-02T08:34:30.173Z,35
2018-02-02T08:35:10.732Z,35
2018-02-02T08:35:51.281Z,35
2018-02-02T08:36:31.814Z,35
2018-02-02T08:37:12.336Z,35
2018-02-02T08:37:52.899Z,35
2018-02-02T08:38:33.427Z,35
2018-02-02T08:39:13.958Z,40
2018-02-02T08:39:54.505Z,40
2018-02-02T08:40:35.027Z,45
2018-02-02T08:41:15.622Z,55
2018-02-02T08:41:56.167Z,55
2018-02-02T08:42:36.654Z,60
2018-02-02T08:43:17.200Z,65
2018-02-02T08:43:57.716Z,70
2018-02-02T08:44:38.314Z,75
2018-02-02T08:45:18.846Z,70
2018-02-02T08:45:59.374Z,65
2018-02-02T08:46:39.887Z,60
2018-02-02T08:47:20.459Z,55
2018-02-02T08:48:00.968Z,55
2018-02-02T08:48:41.487Z,55
2018-02-02T08:49:22.041Z,50
2018-02-02T08:50:02.593Z,45
2018-02-02T08:50:43.087Z,40
2018-02-02T08:51:23.610Z,45
2018-02-02T08:52:04.168Z,45
2018-02-02T08:52:44.662Z,50
2018-02-02T08:53:25.225Z,50
2018-02-02T08:54:05.770Z,50
2018-02-02T08:54:46.296Z,50
2018-02-02T08:55:26.878Z,50
2018-02-02T08:56:07.368Z,45
2018-02-02T08:56:47.986Z,40
2018-02-02T08:57:28.556Z,40
2018-02-02T08:58:09.098Z,40
2018-02-02T08:58:49.657Z,40
2018-02-02T08:59:30.271Z,40
2018-02-02T09:00:10.757Z,40
2018-02-02T09:00:51.304Z,40
2018-02-02T09:01:31.854Z,40
2018-02-02T09:02:12.412Z,40
2018-02-02T09:02:52.985Z,45
2018-02-02T09:03:33.484Z,45
2018-02-02T09:04:14.078Z,50
2018-02-02T09:04:54.625Z,45
2018-02-02T09:05:35.187Z,40
2018-02-02T09:06:15.699Z,40
2018-02-02T09:06:56.261Z,35
2018-02-02T09:07:36.761Z,35
2018-02-02T09:08:17.510Z,40
2018-02-02T09:08:57.941Z,45
2018-02-02T09:09:38.508Z,45
2018-02-02T09:10:19.026Z,40
2018-02-02T09:10:59.634Z,40
2018-02-02T09:11:40.113Z,40
2018-02-02T09:12:20.609Z,45
2018-02-02T09:13:01.128Z,50
2018-02-02T09:13:41.719Z,50
2018-02-02T09:14:22.254Z,50
2018-02-02T09:15:02.759Z,55
2018-02-02T09:15:43.286Z,55
2018-02-02T09:16:23.827Z,50
2018-02-02T09:17:04.353Z,45
2018-02-02T09:17:45.099Z,45
2018-02-02T09:18:25.515Z,50
2018-02-02T09:19:06.048Z,50
2018-02-02T09:19:46.651Z,50
2018-02-02T09:20:27.186Z,50
2018-02-02T09:21:07.713Z,50
2018-02-02T09:21:48.282Z,45
2018-02-02T09:22:28.800Z,45
2018-02-02T09:23:09.357Z,40
2018-02-02T09:23:49.905Z,40
2018-02-02T09:24:30.469Z,40
2018-02-02T09:25:11.032Z,40
2018-02-02T09:25:51.594Z,45
2018-02-02T09:26:32.137Z,50
2018-02-02T09:27:12.680Z,55
2018-02-02T09:27:53.204Z,50
2018-02-02T09:28:33.742Z,55
2018-02-02T09:29:14.270Z,60
2018-02-02T09:29:54.782Z,60
2018-02-02T09:30:35.336Z,60
2018-02-02T09:31:15.978Z,65
2018-02-02T09:31:56.467Z,60
2018-02-02T09:32:36.982Z,60
2018-02-02T09:33:17.517Z,60
2018-02-02T09:33:58.094Z,55
2018-02-02T09:34:38.671Z,55
2018-02-02T09:35:19.203Z,55
2018-02-02T09:35:59.747Z,55
2018-02-02T09:36:40.290Z,60
2018-02-02T09:37:20.901Z,60
2018-02-02T09:38:01.400Z,65
2018-02-02T09:38:41.900Z,60
2018-02-02T09:39:22.420Z,60
2018-02-02T09:40:02.970Z,60
2018-02-02T09:40:43.547Z,55
2018-02-02T09:41:24.099Z,55
2018-02-02T09:42:04.601Z,55
2018-02-02T09:42:45.193Z,55
2018-02-02T09:43:25.751Z,55
2018-02-02T09:44:06.234Z,55
2018-02-02T09:44:46.771Z,60
2018-02-02T09:45:27.277Z,65
2018-02-02T09:46:07.851Z,65
2018-02-02T09:46:48.335Z,70
2018-02-02T09:47:28.851Z,70
2018-02-02T09:48:09.414Z,70
2018-02-02T09:48:49.960Z,75
2018-02-02T09:49:30.505Z,75
2018-02-02T09:50:11.125Z,80
2018-02-02T09:50:51.620Z,80
2018-02-02T09:51:32.132Z,80
2018-02-02T09:52:12.680Z,75
2018-02-02T09:52:53.240Z,80
2018-02-02T09:53:33.769Z,90